createdAt,value
2022-11-29T00:01:32.256Z,34.80
2022-11-29T00:03:59.265Z,34.53
2022-11-29T00:06:33.653Z,36.33
2022-11-29T00:09:06.354Z,34.20
2022-11-29T00:11:54.247Z,34.87
2022-11-29T00:14:21.933Z,34.20
2022-11-29T00:16:53.790Z,35.50
2022-11-29T00:19:20.916Z,31.10
2022-11-29T00:21:47.986Z,31.90
2022-11-29T00:24:14.617Z,33.93
2022-11-29T00:26:41.373Z,52.50
2022-11-29T00:29:10.236Z,45.50
2022-11-29T00:31:40.530Z,46.70
2022-11-29T00:34:10.982Z,47.20
2022-11-29T00:36:45.105Z,39.53
2022-11-29T00:39:26.440Z,41.87
2022-11-29T00:41:53.026Z,44.13
2022-11-29T00:44:20.671Z,36.90
2022-11-29T00:46:56.910Z,37.67
2022-11-29T00:49:23.516Z,40.30
2022-11-29T00:51:50.210Z,35.37
2022-11-29T00:54:16.962Z,39.33
2022-11-29T00:56:43.825Z,35.73
2022-11-29T00:59:10.509Z,33.23
2022-11-29T01:01:37.233Z,34.73
2022-11-29T01:04:04.087Z,35.47
2022-11-29T01:06:30.732Z,34.77
2022-11-29T01:08:57.316Z,36.40
2022-11-29T01:11:31.630Z,37.43
2022-11-29T01:14:01.181Z,38.13
2022-11-29T01:16:30.323Z,32.50
2022-11-29T01:18:57.147Z,31.80
2022-11-29T01:21:26.556Z,37.60
2022-11-29T01:23:53.541Z,34.90
2022-11-29T01:26:23.458Z,33.17
2022-11-29T01:28:51.585Z,34.17
2022-11-29T01:31:27.330Z,36.67
2022-11-29T01:34:01.157Z,34.93
2022-11-29T01:36:28.002Z,39.47
2022-11-29T01:38:54.695Z,34.60
2022-11-29T01:41:25.106Z,38.03
2022-11-29T01:44:15.538Z,32.23
2022-11-29T01:46:46.704Z,38.10
2022-11-29T01:49:19.746Z,37.37
2022-11-29T01:51:54.205Z,40.00
2022-11-29T01:54:21.236Z,37.40
2022-11-29T01:56:49.547Z,42.40
2022-11-29T01:59:21.082Z,38.80
2022-11-29T02:01:47.961Z,37.47
2022-11-29T02:04:15.605Z,39.50
2022-11-29T02:06:52.871Z,37.00
2022-11-29T02:09:21.227Z,46.63
2022-11-29T02:12:17.059Z,44.70
2022-11-29T02:15:05.133Z,37.77
2022-11-29T02:18:07.299Z,36.53
2022-11-29T02:21:10.964Z,41.47
2022-11-29T02:24:00.671Z,46.67
2022-11-29T02:26:44.197Z,47.33
2022-11-29T02:29:26.153Z,41.00
2022-11-29T02:31:55.775Z,49.57
2022-11-29T02:34:43.952Z,48.40
2022-11-29T02:37:22.969Z,42.80
2022-11-29T02:40:40.833Z,47.70
2022-11-29T02:43:45.924Z,45.70
2022-11-29T02:46:24.574Z,46.23
2022-11-29T02:49:15.579Z,45.10
2022-11-29T02:52:02.051Z,34.80
2022-11-29T02:54:41.756Z,49.97
2022-11-29T02:57:25.049Z,38.00
2022-11-29T03:00:11.644Z,39.53
2022-11-29T03:03:04.844Z,38.57
2022-11-29T03:05:51.134Z,34.67
2022-11-29T03:08:30.158Z,45.83
2022-11-29T03:11:05.030Z,47.00
2022-11-29T03:13:46.849Z,47.87
2022-11-29T03:16:23.394Z,44.63
2022-11-29T03:19:00.571Z,48.50
2022-11-29T03:21:43.109Z,43.17
2022-11-29T03:24:29.900Z,43.90
2022-11-29T03:27:42.564Z,51.80
2022-11-29T03:30:20.002Z,43.00
2022-11-29T03:33:01.958Z,59.30
2022-11-29T03:35:42.873Z,52.30
2022-11-29T03:38:25.868Z,50.77
2022-11-29T03:41:01.220Z,59.47
2022-11-29T03:43:39.609Z,51.27
2022-11-29T03:46:12.081Z,51.47
2022-11-29T03:48:54.468Z,55.57
2022-11-29T03:51:26.381Z,57.37
2022-11-29T03:54:06.063Z,58.30
2022-11-29T03:56:35.299Z,45.90
2022-11-29T03:59:32.703Z,49.03
2022-11-29T04:02:37.013Z,53.53
2022-11-29T04:05:35.974Z,42.80
2022-11-29T04:08:14.808Z,53.57
2022-11-29T04:11:18.753Z,61.17
2022-11-29T04:14:25.579Z,56.40
2022-11-29T04:17:15.262Z,56.00
2022-11-29T04:19:54.009Z,68.73
2022-11-29T04:22:51.694Z,81.53
2022-11-29T04:25:27.338Z,78.37
2022-11-29T04:27:59.172Z,80.40
2022-11-29T04:30:26.158Z,80.13
2022-11-29T04:33:16.499Z,71.33
2022-11-29T04:35:51.187Z,70.03
2022-11-29T04:38:23.812Z,62.20
2022-11-29T04:41:06.547Z,57.63
2022-11-29T04:43:54.033Z,69.97
2022-11-29T04:46:41.055Z,66.63
2022-11-29T04:49:52.024Z,60.60
2022-11-29T04:52:48.164Z,54.87
2022-11-29T04:56:00.933Z,66.47
2022-11-29T04:58:36.427Z,56.70
2022-11-29T05:01:19.059Z,61.30
2022-11-29T05:04:06.946Z,62.40
2022-11-29T05:06:49.497Z,65.80
2022-11-29T05:09:42.731Z,48.00
2022-11-29T05:12:20.084Z,46.77
2022-11-29T05:15:27.601Z,49.67
2022-11-29T05:18:28.607Z,50.37
2022-11-29T05:21:05.930Z,53.83
2022-11-29T05:23:47.752Z,45.43
2022-11-29T05:26:30.818Z,41.93
2022-11-29T05:29:08.327Z,44.67
2022-11-29T05:31:52.296Z,50.13
2022-11-29T05:34:40.472Z,53.07
2022-11-29T05:37:45.814Z,45.03
2022-11-29T05:40:31.253Z,51.00
2022-11-29T05:43:16.644Z,57.93
2022-11-29T05:45:49.897Z,71.30
2022-11-29T05:48:31.107Z,71.80
2022-11-29T05:51:39.244Z,70.00
2022-11-29T05:54:14.648Z,63.23
2022-11-29T05:56:46.858Z,62.40
2022-11-29T05:59:41.537Z,58.57
2022-11-29T06:02:23.814Z,55.10
2022-11-29T06:05:25.940Z,52.60
2022-11-29T06:08:10.891Z,61.50
2022-11-29T06:10:42.140Z,53.27
2022-11-29T06:13:08.731Z,49.73
2022-11-29T06:16:01.418Z,44.07
2022-11-29T06:18:48.302Z,46.93
2022-11-29T06:21:22.397Z,55.07
2022-11-29T06:23:58.877Z,46.27
2022-11-29T06:26:43.051Z,43.23
2022-11-29T06:29:42.442Z,32.70
2022-11-29T06:32:40.787Z,33.40
2022-11-29T06:35:10.549Z,25.47
2022-11-29T06:37:46.760Z,27.60
2022-11-29T06:40:15.976Z,48.93
2022-11-29T06:42:42.901Z,44.20
2022-11-29T06:45:14.346Z,41.20
2022-11-29T06:47:45.061Z,43.00
2022-11-29T06:50:27.190Z,41.87
2022-11-29T06:53:03.049Z,40.47
2022-11-29T06:55:43.177Z,45.87
2022-11-29T06:58:18.423Z,38.13
2022-11-29T07:00:47.976Z,36.97
2022-11-29T07:03:48.431Z,35.03
2022-11-29T07:06:25.878Z,37.07
2022-11-29T07:08:59.822Z,34.77
2022-11-29T07:11:26.785Z,47.67
2022-11-29T07:13:53.933Z,39.63
2022-11-29T07:16:31.963Z,37.70
2022-11-29T07:19:06.940Z,26.40
2022-11-29T07:22:05.509Z,24.33
2022-11-29T07:24:48.161Z,27.70
2022-11-29T07:27:44.344Z,28.10
2022-11-29T07:30:16.194Z,24.90
2022-11-29T07:32:51.378Z,27.70
2022-11-29T07:35:23.208Z,30.60
2022-11-29T07:38:07.802Z,29.50
2022-11-29T07:41:22.381Z,28.10
2022-11-29T07:43:55.011Z,27.77
2022-11-29T07:46:29.071Z,26.90
2022-11-29T07:48:55.822Z,30.70
2022-11-29T07:51:22.425Z,28.23
2022-11-29T07:53:49.172Z,26.63
2022-11-29T07:56:16.342Z,27.00
2022-11-29T07:58:45.472Z,24.57
2022-11-29T08:01:12.740Z,24.07
2022-11-29T08:03:41.687Z,25.60
2022-11-29T08:06:08.488Z,29.10
2022-11-29T08:08:43.533Z,27.00
2022-11-29T08:11:11.837Z,24.03
2022-11-29T08:13:38.425Z,20.67
2022-11-29T08:16:05.355Z,24.23
2022-11-29T08:18:36.344Z,25.07
2022-11-29T08:21:07.422Z,29.27
2022-11-29T08:23:34.015Z,31.13
2022-11-29T08:26:04.503Z,32.03
2022-11-29T08:28:31.093Z,32.70
2022-11-29T08:31:06.570Z,42.57
2022-11-29T08:33:40.480Z,39.67
2022-11-29T08:36:09.966Z,40.10
2022-11-29T08:38:36.599Z,36.03
2022-11-29T08:41:07.868Z,32.10
2022-11-29T08:43:34.664Z,32.97
2022-11-29T08:46:01.576Z,36.17
2022-11-29T08:48:28.367Z,33.60
2022-11-29T08:50:56.017Z,41.00
2022-11-29T08:53:44.834Z,44.60
2022-11-29T08:59:05.581Z,46.47
2022-11-29T09:01:34.523Z,46.23
2022-11-29T09:04:05.110Z,46.10
2022-11-29T09:06:40.329Z,46.40
2022-11-29T09:09:10.320Z,44.37
2022-11-29T09:11:37.024Z,44.40
2022-11-29T09:14:06.665Z,41.13
2022-11-29T09:16:49.157Z,39.47
2022-11-29T09:19:23.600Z,37.83
2022-11-29T09:21:50.209Z,39.70
2022-11-29T09:24:17.009Z,38.00
2022-11-29T09:26:46.907Z,32.57
2022-11-29T09:29:22.623Z,40.23
2022-11-29T09:31:49.313Z,46.13
2022-11-29T09:34:24.671Z,38.00
2022-11-29T09:36:51.361Z,32.50
2022-11-29T09:39:18.076Z,34.47
2022-11-29T09:42:06.744Z,36.87
2022-11-29T09:44:39.178Z,36.67
2022-11-29T09:47:36.728Z,36.97
2022-11-29T09:50:46.427Z,35.50
2022-11-29T09:53:34.831Z,30.23
2022-11-29T09:56:28.490Z,33.53
2022-11-29T09:59:01.533Z,32.00
2022-11-29T10:02:00.277Z,30.03
2022-11-29T10:04:31.294Z,34.53
2022-11-29T10:07:18.619Z,34.00
2022-11-29T10:09:50.609Z,26.43
2022-11-29T10:12:20.351Z,31.83
2022-11-29T10:15:01.587Z,31.60
2022-11-29T10:17:34.583Z,34.73
2022-11-29T10:20:23.248Z,36.53
2022-11-29T10:22:57.548Z,33.33
2022-11-29T10:25:26.698Z,27.77
2022-11-29T10:27:53.775Z,34.50
2022-11-29T10:30:25.480Z,27.17
2022-11-29T10:32:58.354Z,31.03
2022-11-29T10:35:25.079Z,35.27
2022-11-29T10:38:29.309Z,35.17
2022-11-29T10:40:47.805Z,41.00
2022-11-29T10:43:14.499Z,35.00
2022-11-29T10:45:51.039Z,36.47
2022-11-29T10:48:22.575Z,36.90
2022-11-29T10:51:02.912Z,29.70
2022-11-29T10:58:02.617Z,39.30
2022-11-29T11:00:32.782Z,31.53
2022-11-29T11:03:47.905Z,28.97
2022-11-29T11:07:01.460Z,29.63
2022-11-29T11:09:33.803Z,26.63
2022-11-29T11:12:08.568Z,31.50
2022-11-29T11:14:40.423Z,26.40
2022-11-29T11:17:31.176Z,31.47
2022-11-29T11:20:22.057Z,29.43
2022-11-29T11:23:24.118Z,30.43
2022-11-29T11:26:30.972Z,26.60
2022-11-29T11:33:27.142Z,25.20
2022-11-29T11:36:22.035Z,26.70
2022-11-29T11:39:10.036Z,24.23
2022-11-29T11:41:57.454Z,22.00
2022-11-29T11:44:48.481Z,27.47
2022-11-29T11:47:21.971Z,28.20
2022-11-29T11:50:09.201Z,26.30
2022-11-29T11:52:42.794Z,23.77
2022-11-29T11:55:30.491Z,29.37
2022-11-29T11:58:11.985Z,28.80
2022-11-29T12:03:39.609Z,34.00
2022-11-29T12:06:11.246Z,32.63
2022-11-29T12:08:40.447Z,25.70
2022-11-29T12:11:10.557Z,29.00
2022-11-29T12:13:41.812Z,27.70
2022-11-29T12:16:16.163Z,27.30
2022-11-29T12:18:47.722Z,30.87
2022-11-29T12:21:17.612Z,30.60
2022-11-29T12:24:10.242Z,34.80
2022-11-29T12:29:28.961Z,30.00
2022-11-29T12:32:18.094Z,30.80
2022-11-29T12:34:56.116Z,31.73
2022-11-29T12:37:44.511Z,34.17
2022-11-29T12:40:21.377Z,31.00
2022-11-29T12:43:06.708Z,33.37
2022-11-29T12:45:53.622Z,34.77
2022-11-29T12:48:26.472Z,31.00
2022-11-29T12:51:27.406Z,34.13
2022-11-29T12:54:16.988Z,42.10
2022-11-29T12:56:53.688Z,35.97
2022-11-29T12:59:38.518Z,32.23
2022-11-29T13:02:21.151Z,38.90
2022-11-29T13:05:00.325Z,36.10
2022-11-29T13:07:33.270Z,29.27
2022-11-29T13:10:02.927Z,35.23
2022-11-29T13:12:57.095Z,36.00
2022-11-29T13:15:32.802Z,34.30
2022-11-29T13:18:13.446Z,36.20
2022-11-29T13:20:49.905Z,36.57
2022-11-29T13:24:10.901Z,30.70
2022-11-29T13:26:58.279Z,34.00
2022-11-29T13:29:28.522Z,31.47
2022-11-29T13:31:55.215Z,30.87
2022-11-29T13:34:46.158Z,33.73
2022-11-29T13:37:12.913Z,31.10
2022-11-29T13:39:58.311Z,35.53
2022-11-29T13:42:45.355Z,34.23
2022-11-29T13:45:22.853Z,32.13
2022-11-29T13:47:58.672Z,28.77
2022-11-29T13:50:40.006Z,30.60
2022-11-29T13:53:48.560Z,29.10
2022-11-29T13:56:49.467Z,32.83
2022-11-29T13:59:31.715Z,33.43
2022-11-29T14:02:00.980Z,30.97
2022-11-29T14:04:34.994Z,29.50
2022-11-29T14:07:04.500Z,29.87
2022-11-29T14:09:53.245Z,25.07
2022-11-29T14:12:36.054Z,26.90
2022-11-29T14:15:18.044Z,31.63
2022-11-29T14:17:57.206Z,31.23
2022-11-29T14:20:23.766Z,29.90
2022-11-29T14:23:05.471Z,34.80
2022-11-29T14:28:18.604Z,34.80
2022-11-29T14:30:54.913Z,38.07
2022-11-29T14:33:34.113Z,34.47
2022-11-29T14:36:18.866Z,41.47
2022-11-29T14:39:04.440Z,44.77
2022-11-29T14:41:55.783Z,37.20
2022-11-29T14:44:26.077Z,38.60
2022-11-29T14:47:07.357Z,37.90
2022-11-29T14:49:42.210Z,36.00
2022-11-29T14:52:14.960Z,37.73
2022-11-29T14:55:16.675Z,37.60
2022-11-29T14:58:02.163Z,37.20
2022-11-29T15:00:29.602Z,35.17
2022-11-29T15:03:06.265Z,36.13
2022-11-29T15:05:34.880Z,36.90
2022-11-29T15:08:34.878Z,38.20
2022-11-29T15:11:26.098Z,36.23
2022-11-29T15:14:02.078Z,39.40
2022-11-29T15:16:47.327Z,39.27
2022-11-29T15:19:43.520Z,42.70
2022-11-29T15:22:20.195Z,36.93
2022-11-29T15:25:17.574Z,43.73
2022-11-29T15:27:55.129Z,41.80
2022-11-29T15:30:36.972Z,42.70
2022-11-29T15:33:07.139Z,40.00
2022-11-29T15:35:35.165Z,36.03
2022-11-29T15:38:02.380Z,43.60
2022-11-29T15:40:36.403Z,44.17
2022-11-29T15:43:41.446Z,49.83
2022-11-29T15:46:18.895Z,42.73
2022-11-29T15:48:45.584Z,44.70
2022-11-29T15:51:30.715Z,40.33
2022-11-29T15:54:23.318Z,34.77
2022-11-29T15:56:54.478Z,41.33
2022-11-29T15:59:27.651Z,37.73
2022-11-29T16:01:57.390Z,36.13
2022-11-29T16:04:24.479Z,33.33
2022-11-29T16:06:51.931Z,36.23
2022-11-29T16:09:30.424Z,34.87
2022-11-29T16:11:57.489Z,36.53
2022-11-29T16:14:25.402Z,30.60
2022-11-29T16:16:57.790Z,35.40
2022-11-29T16:19:37.631Z,38.20
2022-11-29T16:22:10.410Z,36.37
2022-11-29T16:25:07.861Z,38.33
2022-11-29T16:27:36.350Z,34.53
2022-11-29T16:30:08.409Z,35.50
2022-11-29T16:33:03.403Z,31.57
2022-11-29T16:35:33.111Z,40.07
2022-11-29T16:38:03.747Z,37.40
2022-11-29T16:40:35.373Z,43.63
2022-11-29T16:43:08.751Z,42.23
2022-11-29T16:45:41.785Z,39.97
2022-11-29T16:48:30.564Z,38.60
2022-11-29T16:51:44.064Z,41.73
2022-11-29T16:54:21.211Z,39.80
2022-11-29T16:56:48.731Z,36.90
2022-11-29T16:59:25.581Z,36.23
2022-11-29T17:01:56.774Z,35.17
2022-11-29T17:04:25.143Z,41.83
2022-11-29T17:06:56.155Z,38.30
2022-11-29T17:09:28.887Z,45.10
2022-11-29T17:11:56.576Z,47.43
2022-11-29T17:14:23.266Z,49.40
2022-11-29T17:16:50.522Z,47.97
2022-11-29T17:19:18.192Z,48.93
2022-11-29T17:21:50.263Z,51.40
2022-11-29T17:24:21.793Z,42.33
2022-11-29T17:26:48.420Z,37.67
2022-11-29T17:29:20.730Z,46.73
2022-11-29T17:32:15.962Z,53.53
2022-11-29T17:34:51.857Z,51.83
2022-11-29T17:37:20.634Z,49.47
2022-11-29T17:39:49.174Z,40.03
2022-11-29T17:42:20.815Z,41.70
2022-11-29T17:44:47.507Z,48.87
2022-11-29T17:47:14.210Z,41.63
2022-11-29T17:49:40.908Z,40.83
2022-11-29T17:52:08.163Z,33.40
2022-11-29T17:54:36.032Z,39.57
2022-11-29T17:57:04.470Z,37.63
2022-11-29T17:59:31.103Z,43.83
2022-11-29T18:01:57.763Z,45.77
2022-11-29T18:04:24.451Z,31.70
2022-11-29T18:06:52.469Z,33.67
2022-11-29T18:09:19.805Z,36.80
2022-11-29T18:11:49.376Z,32.60
2022-11-29T18:14:28.312Z,29.60
2022-11-29T18:16:55.243Z,29.73
2022-11-29T18:19:23.006Z,27.80
2022-11-29T18:21:50.341Z,30.30
2022-11-29T18:24:17.753Z,29.00
2022-11-29T18:26:45.507Z,25.30
2022-11-29T18:29:12.500Z,36.17
2022-11-29T18:31:41.633Z,31.30
2022-11-29T18:34:10.152Z,32.90
2022-11-29T18:36:45.592Z,31.07
2022-11-29T18:39:18.061Z,41.27
2022-11-29T18:41:48.404Z,40.70
2022-11-29T18:44:17.448Z,35.03
2022-11-29T18:46:45.295Z,34.30
2022-11-29T18:49:17.575Z,35.83
2022-11-29T18:51:46.172Z,34.57
2022-11-29T18:54:14.353Z,34.37
2022-11-29T18:56:42.648Z,32.17
2022-11-29T18:59:16.710Z,34.23
2022-11-29T19:01:45.355Z,27.77
2022-11-29T19:04:16.717Z,32.50
2022-11-29T19:06:44.089Z,28.23
2022-11-29T19:09:20.781Z,24.97
2022-11-29T19:11:49.392Z,23.93
2022-11-29T19:14:16.061Z,23.10
2022-11-29T19:16:44.922Z,22.23
2022-11-29T19:19:13.043Z,23.57
2022-11-29T19:21:42.288Z,20.37
2022-11-29T19:24:15.719Z,21.17
2022-11-29T19:26:48.501Z,21.07
2022-11-29T19:29:15.745Z,19.87
2022-11-29T19:31:44.811Z,17.33
2022-11-29T19:34:11.695Z,20.40
2022-11-29T19:36:44.979Z,16.60
2022-11-29T19:39:14.346Z,22.63
2022-11-29T19:41:45.531Z,16.90
2022-11-29T19:44:12.538Z,24.10
2022-11-29T19:46:45.745Z,18.30
2022-11-29T19:49:14.007Z,17.23
2022-11-29T19:51:41.100Z,20.60
2022-11-29T19:54:12.405Z,17.63
2022-11-29T19:56:39.356Z,14.40
2022-11-29T19:59:07.517Z,28.87
2022-11-29T20:01:40.766Z,20.27
2022-11-29T20:04:12.034Z,26.00
2022-11-29T20:06:39.799Z,19.77
2022-11-29T20:09:07.065Z,21.37
2022-11-29T20:11:33.749Z,20.97
2022-11-29T20:14:01.516Z,20.47
2022-11-29T20:16:29.378Z,17.33
2022-11-29T20:18:56.866Z,20.10
2022-11-29T20:21:33.730Z,17.60
2022-11-29T20:24:07.769Z,19.67
2022-11-29T20:26:37.500Z,21.27
2022-11-29T20:29:05.536Z,18.77
2022-11-29T20:31:33.651Z,27.13
2022-11-29T20:34:00.522Z,22.63
2022-11-29T20:36:36.360Z,17.97
2022-11-29T20:39:33.971Z,20.07
2022-11-29T20:42:18.784Z,25.73
2022-11-29T20:44:57.256Z,28.70
2022-11-29T20:47:28.570Z,20.43
2022-11-29T20:49:55.568Z,21.13
2022-11-29T20:52:28.245Z,23.70
2022-11-29T20:54:55.147Z,19.83
2022-11-29T20:57:22.271Z,28.83
2022-11-29T20:59:49.812Z,27.20
2022-11-29T21:02:16.492Z,36.23
2022-11-29T21:04:43.313Z,33.47
2022-11-29T21:07:10.071Z,30.27
2022-11-29T21:09:36.673Z,32.05
2022-11-29T21:12:05.997Z,37.57
2022-11-29T21:14:32.972Z,31.87
2022-11-29T21:17:00.245Z,31.90
2022-11-29T21:19:27.295Z,37.90
2022-11-29T21:22:05.900Z,37.23
2022-11-29T21:24:51.327Z,36.57
2022-11-29T21:27:31.748Z,30.80
2022-11-29T21:30:03.395Z,35.70
2022-11-29T21:32:30.279Z,31.40
2022-11-29T21:34:56.921Z,35.70
2022-11-29T21:37:29.297Z,33.90
2022-11-29T21:39:57.554Z,33.93
2022-11-29T21:42:24.202Z,38.37
2022-11-29T21:44:50.882Z,38.60
2022-11-29T21:47:17.520Z,39.13
2022-11-29T21:49:44.172Z,38.57
2022-11-29T21:52:10.862Z,34.77
2022-11-29T21:54:37.524Z,40.77
2022-11-29T21:57:04.334Z,38.93
2022-11-29T21:59:31.220Z,43.60
2022-11-29T22:01:57.948Z,47.90
2022-11-29T22:04:25.235Z,48.40
2022-11-29T22:06:51.830Z,42.73
2022-11-29T22:09:18.705Z,50.80
2022-11-29T22:11:45.813Z,38.07
2022-11-29T22:14:18.077Z,47.47
2022-11-29T22:16:54.265Z,44.73
2022-11-29T22:19:28.960Z,48.27
2022-11-29T22:21:57.751Z,46.00
2022-11-29T22:24:26.828Z,41.37
2022-11-29T22:26:54.313Z,46.57
2022-11-29T22:29:21.650Z,41.77
2022-11-29T22:31:51.145Z,46.40
2022-11-29T22:34:18.465Z,41.80
2022-11-29T22:36:48.726Z,44.87
2022-11-29T22:39:15.586Z,52.37
2022-11-29T22:41:42.695Z,47.97
2022-11-29T22:44:09.613Z,42.40
2022-11-29T22:46:39.369Z,54.70
2022-11-29T22:49:06.017Z,64.00
2022-11-29T22:51:34.941Z,47.30
2022-11-29T22:54:03.666Z,45.17
2022-11-29T22:56:32.739Z,45.00
2022-11-29T22:58:59.554Z,41.97
2022-11-29T23:01:30.804Z,44.07
2022-11-29T23:03:59.715Z,46.53
2022-11-29T23:06:28.369Z,47.33
2022-11-29T23:08:59.020Z,37.07
2022-11-29T23:11:29.807Z,39.83
2022-11-29T23:13:56.652Z,43.30
2022-11-29T23:16:25.592Z,46.57
2022-11-29T23:18:53.538Z,37.50
2022-11-29T23:21:28.384Z,46.27
2022-11-29T23:23:56.828Z,42.00
2022-11-29T23:26:26.391Z,39.30
2022-11-29T23:28:54.136Z,44.20
2022-11-29T23:31:21.508Z,34.70
2022-11-29T23:33:48.525Z,36.27
2022-11-29T23:36:15.701Z,37.37
2022-11-29T23:38:42.791Z,36.43
2022-11-29T23:41:09.839Z,33.50
2022-11-29T23:43:37.869Z,38.70
2022-11-29T23:46:15.029Z,47.03
2022-11-29T23:48:42.142Z,34.67
2022-11-29T23:51:09.057Z,34.77
2022-11-29T23:53:35.680Z,37.50
2022-11-29T23:56:04.415Z,34.10
2022-11-29T23:58:32.115Z,38.73
